Delta Virtual Airport Information Service

San Diego International Airport

ICAO: KSAN Country: United States
Latitude: 32.7336 Longitude: -117.189
Latest Arrival : UAL1916 (2A) (KIAH-KSAN) Latest Departure : DAL1236 (2) (KSAN-KJFK)


WX CaptureLIVE
Data provided by noaa.gov | Fetched at 22:53:44

METAR : KSAN 240251Z 28006KT 10SM OVC027 21/13 A3000 RMK AO2 SLP158 T02110133 53008

TAF : KSAN 240254Z 2403/2506 VRB05KT P6SM OVC025 FM241600 VRB04KT P6SM BKN030 FM242100 27008KT P6SM SCT035 FM250100 VRB04KT P6SM OVC040


Runway Data for KSAN
Data provided by openaviationdata.com

Runway ID Mag Var Hdg Length Elevation Surface ILS Freq ILS Id ILS Slope
9 13 92° 9394 ft 15 ft Concrete 110.9 ISAN 3
27 13 272° 9394 ft 15 ft Concrete 110.9 IUBR 0

San Diego International Airport, United States
Use only for reference purposes



Not for navigational purposes.